Skip Navigation Links
NOAA logo - Click to go to the NOAA homepage
NOAA's National Weather Service
Alaska Aviation Weather Unit
  NWS logo - Click to go to the NWS homepage
Left Navbar Graphic     01 AKDT = 09 GMT

   
NOAA is celebrating 200 years of science, service, and stewardship. Visit the NOAA 200th celebration Web site to learn more.
USA.gov is the U.S. Government's official Web portal to all Federal, state and local government Web resources and services.
Facebook
NWS on Facebook

Important Change Regarding the AAWU Web Presence

 

Over the last several months, the AAWU has been working to navigate its webpages to a nationally supported server. Security, as well as other needs, have necessitated the change.  We have been given an extension for the site changeover while we diligently work at addressing feedback received. As of July 14, 2017, aawu.arh.noaa.gov will be discontinued. The new AAWU web address is weather.gov/aawu. It is now live and will run in-parallel with the old site until it is discontinued on July 14, 2017. Please continue to send any feedback or questions regarding the new webpages to nws.ar.aawu.webauthors@noaa.gov.  Thank you for your patience during this time of transition.
AAWU Home :: Display TAF Add Bookmark
TAF PAKW 190524Z 1906/2006  VRB04KT 6SM -SHRA SCT030 OVC060
      TEMPO 1912/1915 4SM -RA BR SCT010 OVC025
     FM191500 16006KT 4SM -SHRA BR SCT010 BKN015 OVC025
     FM192100 21004KT P6SM -SHRA SCT015 OVC025
      AMD LTD TO CLD VIS AND WIND=


SPECI PAKW 190311Z AUTO 23003KT 9SM BKN023 BKN030 OVC041 13/12 A3005 RMK
     AO2 T01280117 TSNO=

SPECI PAKW 190341Z AUTO 23003KT 9SM -RA FEW019 SCT028 OVC065 13/12
 A3006 RMK AO2 RAB28 P0000 T01330117 TSNO=

METAR PAKW 190353Z AUTO 00000KT 9SM FEW017 BKN065 OVC080 13/11 A3006 RMK
     AO2 RAB28E45 SLP180 P0000 T01280111 TSNO=

METAR PAKW 190453Z AUTO 00000KT 10SM FEW039 SCT060 12/10 A3007 RMK AO2
     SLP183 T01170100 TSNO=

METAR PAKW 190553Z AUTO 00000KT 10SM FEW022 SCT033 BKN045 11/09 A3008
     RMK AO2 SLP186 60003 T01110094 10150 20106 51010 TSNO=

METAR PAKW 190653Z AUTO 18003KT 10SM FEW032 11/09 A3008 RMK AO2 SLP187
     T01110094 TSNO=

METAR PAKW 190753Z AUTO 16005KT 10SM FEW027 SCT050 BKN060 12/09 A3009
     RMK AO2 SLP189 T01170094 TSNO=

SPECI PAKW 190816Z AUTO 16004KT 10SM BKN025 BKN035 OVC060 12/09 A3009
     RMK AO2 T01170094 TSNO=

SPECI PAKW 190836Z AUTO 16004KT 10SM SCT025 BKN030 OVC060 12/10 A3009
     RMK AO2 T01170100 TSNO=

SPECI PAKW 190851Z AUTO 14005KT 8SM -RA BKN023 BKN028 OVC035 12/09 A3009
     RMK AO2 RAB41 P0000 TSNO=


NOAA's National Weather Service
Alaska Aviation Weather Unit
6930 Sand Lake Road
Anchorage, AK 99502-1845
Disclaimer
Credits
Glossary
Privacy Policy
About Us
Career Opportunities
Contact AAWU Internet Services Site last modified: April, 17th 2012